Redwood City, CA (94065)

5:25 PM PDT on October 31, 2014 (GMT -0700)
MorganHomes.com-Hallmark Park Area | Change Station
CLOSE
Current Station
Personal Weather Station
Location: Belmont, CA
Elevation: 760 ft
Nearby Weather Stations

Elev 760 ft 37.52 °N, 122.26 °W | Updated 4 seconds ago

Overcast
Overcast
54.5 °F
Feels Like 54.5 °F
N
1.0
Wind Variable Wind from SSW
Gusts 1.0 mph

Today
High -- | Low -- °F
--% Chance of Precip.
Yesterday
High -- | Low -- °F
Precip. -- in
7:33 AM 6:11 PM
First Quarter, 60% visible
Pressure 29.80 in
Visibility 10.0 miles
Clouds Scattered Clouds 2300 ft
Mostly Cloudy 9000 ft
Overcast 16000 ft
Dew Point 54 °F
Humidity 100%
Rainfall 0.14 in
Snow Depth Not available.
UV 0 out of 12
Pollen .50 out of 12
Air Quality Not available.
Flu Activity Not available.
METAR KSQL 312350Z 00000KT 10SM SCT023 BKN090 OVC160 15/12 A2980

More Conditions Fewer Conditions

Pressure 29.80 in
Visibility 10.0 miles
Clouds Scattered Clouds 2300 ft
Mostly Cloudy 9000 ft
Overcast 16000 ft
Dew Point 54 °F
Humidity 100%
Rainfall 0.14 in
Snow Depth Not available.
UV 0 out of 12
Pollen .50 out of 12
Air Quality Not available.
Flu Activity Not available.
METAR KSQL 312350Z 00000KT 10SM SCT023 BKN090 OVC160 15/12 A2980

More Conditions Fewer Conditions

10-Day Weather Forecast

Almanac

Astronomy

Oct. 31, 2014 Rise Set
Actual Time
Civil Twilight
Nautical Twilight
Astronomical Twilight
Moon
Length of Visible Light
Length of Day
Tomorrow will be .
, % of the Moon is Illuminated

Today's Extremes

State Highs State Lows

Community

WunderPhotos

Upload Photos

1,766,792 photos uploaded!

WunderBlogs® & News

Nearby

Air Quality

  Air Quality AQ Index Pollutant
Not available.

Snow Depth

Station Depth Elevation

Earthquake Activity

City Distance Mag. Time & Date
Minimum magnitude displayed is 2.5.

Coastal Water Temperatures

Place Temperature

Nearby Weather Stations